Terminal Aerodrome Forecast
Issued by NWS Wilmington, OH

Current Version | Previous Version | Text Only | Print | Product List | Glossary Off
Versions: 1 2 3 4 5 6 7 8 9 10 11 12 13 14 15 16 17 18 19 20 21 22 23 24 25 26 27 28 29

000
FTUS41 KILN 241100
TAFCVG
TAF
KCVG 241140Z 2412/2518 28010KT P6SM OVC015
      TEMPO 2412/2413 SCT018 OVC100
     FM241300 26010KT P6SM FEW015 SCT080
     FM241900 26010G18KT P6SM OVC035
     FM242200 25007KT P6SM OVC035
     FM250600 22005KT P6SM SCT025 BKN150
     FM251000 18005KT P6SM BKN018 OVC150
     FM251600 17008KT 5SM -RA OVC015=

USA.gov is the U.S. government's official web portal to all federal, state and local government web resources and services.